Time;durP1;ratioP1;P1;durP2;ratioP2;P2;SDS_P1;SDS_P2;PMS_P1;PMS_P2;Temp;Humidity;BMP_temperature;BMP_pressure;BME280_temperature;BME280_humidity;BME280_pressure;Samples;Min_cycle;Max_cycle;Signal;HPM_P1;HPM_P2
2021/01/09 02:55:13;;;;;;;;;;;0.90;99.90;;;;;;6216381;22;20016;31
2021/01/09 03:57:24;;;;;;;;;;;0.90;99.90;;;;;;6205995;22;19923;31
2021/01/09 05:07:29;;;;;;;;;;;0.90;99.90;;;;;;5851397;22;19930;31
2021/01/09 05:18:22;;;;;;;;;;;0.90;99.90;;;;;;6116963;22;20121;-86
2021/01/09 10:53:29;;;;;;;;;;;1.80;99.90;;;;;;5440772;22;19971;31
2021/01/09 10:55:56;;;;;;;;;;;1.80;99.90;;;;;;5566716;22;19929;-88
2021/01/09 10:58:23;;;;;;;;;;;1.80;99.90;;;;;;5647182;22;20011;-89
2021/01/09 11:00:49;;;;;;;;;;;1.90;99.90;;;;;;5401179;22;19916;-89
2021/01/09 11:03:17;;;;;;;;;;;2.00;99.90;;;;;;5551756;22;19946;-89
2021/01/09 11:05:44;;;;;;;;;;;2.00;99.90;;;;;;5265976;22;21188;-88
2021/01/09 11:08:10;;;;;;;;;;;2.10;99.90;;;;;;5270847;22;20036;-88
2021/01/09 11:10:36;;;;;;;;;;;2.10;99.90;;;;;;5037191;28;19968;-87
2021/01/09 11:13:01;;;;;;;;;;;2.10;99.90;;;;;;5031311;28;20019;-88
2021/01/09 11:15:27;;;;;;;;;;;2.10;99.90;;;;;;5019307;28;19920;-87
2021/01/09 11:17:54;;;;;;;;;;;2.10;99.90;;;;;;5173518;23;19960;-89
2021/01/09 11:20:20;;;;;;;;;;;2.10;99.90;;;;;;5054330;28;19919;-88
2021/01/09 11:22:46;;;;;;;;;;;2.20;99.90;;;;;;5054113;28;19912;-88
2021/01/09 11:25:11;;;;;;;;;;;2.20;99.90;;;;;;5162834;23;19956;-88
2021/01/09 11:27:39;;;;;;;;;;;2.30;99.90;;;;;;5147294;22;19929;-88
2021/01/09 11:30:07;;;;;;;;;;;2.40;99.90;;;;;;5017161;28;19909;-88
2021/01/09 11:32:35;;;;;;;;;;;2.30;99.90;;;;;;5160958;22;19982;-88
2021/01/09 11:35:03;;;;;;;;;;;2.30;99.90;;;;;;5071806;28;19917;-89
2021/01/09 11:37:28;;;;;;;;;;;2.40;99.90;;;;;;5062856;28;19959;-89
2021/01/09 11:39:56;;;;;;;;;;;2.40;99.90;;;;;;5256930;22;19952;-87
2021/01/09 11:42:22;;;;;;;;;;;2.40;99.90;;;;;;5034903;28;19921;-89
2021/01/09 11:44:50;;;;;;;;;;;2.50;99.90;;;;;;5036178;28;20419;-89
2021/01/09 11:47:15;;;;;;;;;;;2.50;99.90;;;;;;5036241;28;20257;-88
2021/01/09 11:49:41;;;;;;;;;;;2.50;99.90;;;;;;5266140;22;19957;-88
2021/01/09 11:52:09;;;;;;;;;;;2.50;99.90;;;;;;5035395;28;20022;-87
2021/01/09 11:54:35;;;;;;;;;;;2.40;99.90;;;;;;5046642;28;19965;-90
2021/01/09 11:57:01;;;;;;;;;;;2.40;99.90;;;;;;5037821;28;19980;-87
2021/01/09 11:59:29;;;;;;;;;;;2.50;99.90;;;;;;5267133;22;19924;-87
2021/01/09 12:01:57;;;;;;;;;;;2.50;99.90;;;;;;5299025;22;19935;-89
2021/01/09 12:04:22;;;;;;;;;;;2.50;99.90;;;;;;5015786;28;20020;-88
2021/01/09 12:06:48;;;;;;;;;;;2.50;99.90;;;;;;5282484;22;20795;-88
2021/01/09 12:09:13;;;;;;;;;;;2.50;99.90;;;;;;5029718;28;19947;-88
2021/01/09 12:11:41;;;;;;;;;;;2.40;99.90;;;;;;5026555;28;20347;-87
2021/01/09 12:14:07;;;;;;;;;;;2.50;99.90;;;;;;5035347;28;20352;-88
2021/01/09 12:19:08;;;;;;;;;;;2.60;99.90;;;;;;5180128;22;19966;-88
2021/01/09 12:21:34;;;;;;;;;;;2.70;99.90;;;;;;5035930;28;20348;-87
2021/01/09 12:44:54;;;;;;;;;;;2.50;99.90;;;;;;5345930;22;19932;-89
2021/01/09 12:47:19;;;;;;;;;;;2.50;99.90;;;;;;5034553;28;19943;-88
2021/01/09 12:49:47;;;;;;;;;;;2.50;99.90;;;;;;5033729;28;20360;-87
2021/01/09 12:52:13;;;;;;;;;;;2.40;99.90;;;;;;5157923;23;20397;-81
2021/01/09 12:54:38;;;;;;;;;;;2.40;99.90;;;;;;5053315;28;19995;-82
2021/01/09 12:57:04;;;;;;;;;;;2.40;99.90;;;;;;5053104;28;20007;-81
2021/01/09 13:02:00;;;;;;;;;;;2.30;99.90;;;;;;5030151;28;20335;-87
2021/01/09 13:04:26;;;;;;;;;;;2.30;99.90;;;;;;5013453;28;19913;-87
2021/01/09 13:06:57;;;;;;;;;;;2.20;99.90;;;;;;5014194;28;20008;-87
2021/01/09 13:09:23;;;;;;;;;;;2.20;99.90;;;;;;5014480;28;19963;-88
2021/01/09 13:11:55;;;;;;;;;;;2.20;99.90;;;;;;5013912;28;19917;-87
2021/01/09 13:14:21;;;;;;;;;;;2.10;99.90;;;;;;5031841;28;20297;-87
2021/01/09 13:16:47;;;;;;;;;;;2.10;99.90;;;;;;5120839;22;19930;-86
2021/01/09 13:19:13;;;;;;;;;;;2.10;99.90;;;;;;5011865;28;19967;-87
2021/01/09 13:21:42;;;;;;;;;;;2.00;99.90;;;;;;5013388;28;19913;-86
2021/01/09 13:24:08;;;;;;;;;;;2.10;99.90;;;;;;4994392;28;19975;-87
2021/01/09 13:26:34;;;;;;;;;;;2.00;99.90;;;;;;4993926;28;19914;-86
2021/01/09 13:28:59;;;;;;;;;;;1.90;99.90;;;;;;4994249;28;19989;-86
2021/01/09 13:31:32;;;;;;;;;;;1.90;99.90;;;;;;4993671;28;19922;-87
2021/01/09 13:33:58;;;;;;;;;;;1.90;99.90;;;;;;5011986;28;20386;-87
2021/01/09 13:36:30;;;;;;;;;;;1.90;99.90;;;;;;4993809;28;20385;-87
2021/01/09 13:38:55;;;;;;;;;;;1.90;99.90;;;;;;5113242;23;20070;-87
2021/01/09 13:41:21;;;;;;;;;;;1.90;99.90;;;;;;5127136;22;19968;-88
2021/01/09 13:43:46;;;;;;;;;;;1.90;99.90;;;;;;5013883;28;20031;-89
2021/01/09 13:48:40;;;;;;;;;;;1.80;99.90;;;;;;5181960;22;19971;-89
2021/01/09 13:51:05;;;;;;;;;;;1.80;99.90;;;;;;5074188;28;20060;-89
2021/01/09 13:53:31;;;;;;;;;;;1.80;99.90;;;;;;5059762;28;19916;-90
2021/01/09 13:55:56;;;;;;;;;;;1.80;99.90;;;;;;5073358;28;19912;-88
2021/01/09 13:58:22;;;;;;;;;;;1.70;99.90;;;;;;5059716;28;20068;-90
2021/01/09 14:00:50;;;;;;;;;;;1.70;99.90;;;;;;5059157;28;19912;-88
2021/01/09 14:03:15;;;;;;;;;;;1.70;99.90;;;;;;5355832;22;19959;-86
2021/01/09 14:05:45;;;;;;;;;;;1.60;99.90;;;;;;5085010;28;19998;-87
2021/01/09 14:08:11;;;;;;;;;;;1.70;99.90;;;;;;5183344;22;19928;-80
2021/01/09 14:10:36;;;;;;;;;;;1.60;99.90;;;;;;5190817;22;20381;-89
2021/01/09 14:13:07;;;;;;;;;;;1.60;99.90;;;;;;5178201;23;19950;-86
2021/01/09 14:15:32;;;;;;;;;;;1.60;99.90;;;;;;5074140;28;19913;-86
2021/01/09 14:18:00;;;;;;;;;;;1.50;99.90;;;;;;5076801;28;19930;-86
2021/01/09 14:20:26;;;;;;;;;;;1.50;99.90;;;;;;5178437;22;19935;-89
2021/01/09 14:22:54;;;;;;;;;;;1.50;99.90;;;;;;5063591;28;20278;-88
2021/01/09 14:25:20;;;;;;;;;;;1.40;99.90;;;;;;5063781;28;19915;-90
2021/01/09 14:27:46;;;;;;;;;;;1.30;99.90;;;;;;5063946;28;19999;-90
2021/01/09 14:30:12;;;;;;;;;;;1.30;99.90;;;;;;5063158;28;19916;-89
2021/01/09 14:32:37;;;;;;;;;;;1.30;99.90;;;;;;5171949;22;19896;-88
2021/01/09 14:35:07;;;;;;;;;;;1.30;99.90;;;;;;5041063;28;19920;-88
2021/01/09 14:37:36;;;;;;;;;;;1.20;99.90;;;;;;5057075;28;19913;-87
2021/01/09 14:40:02;;;;;;;;;;;1.20;99.90;;;;;;5021760;28;19917;-88
2021/01/09 14:42:30;;;;;;;;;;;1.10;99.90;;;;;;5030533;28;19941;-88
2021/01/09 14:44:58;;;;;;;;;;;1.10;99.90;;;;;;5020336;28;19917;-88
2021/01/09 14:47:27;;;;;;;;;;;1.10;99.90;;;;;;5039477;28;20371;-87
2021/01/09 14:49:52;;;;;;;;;;;1.00;99.90;;;;;;5039046;28;19920;-88
2021/01/09 14:52:18;;;;;;;;;;;1.00;99.90;;;;;;5154457;23;20291;-80
2021/01/09 14:54:43;;;;;;;;;;;1.00;99.90;;;;;;5174148;22;19929;-88
2021/01/09 15:04:49;;;;;;;;;;;0.90;99.90;;;;;;5545357;22;19923;-91
2021/01/09 15:07:15;;;;;;;;;;;0.80;99.90;;;;;;5035403;28;20375;-88
2021/01/09 15:09:45;;;;;;;;;;;0.80;99.90;;;;;;5035960;28;20269;-89
2021/01/09 15:12:10;;;;;;;;;;;0.80;99.90;;;;;;5036249;28;19921;-90
2021/01/09 15:14:36;;;;;;;;;;;0.70;99.90;;;;;;5159733;23;19935;-86
2021/01/09 15:17:02;;;;;;;;;;;0.70;99.90;;;;;;5035600;28;20390;-86
2021/01/09 15:19:27;;;;;;;;;;;0.70;99.90;;;;;;5162054;22;19925;-90
2021/01/09 15:21:53;;;;;;;;;;;0.70;99.90;;;;;;5186953;22;20390;-89
2021/01/09 15:24:20;;;;;;;;;;;0.60;99.90;;;;;;5067847;28;19954;-89
2021/01/09 15:26:51;;;;;;;;;;;0.60;99.90;;;;;;5076735;28;19954;-88
2021/01/09 15:31:54;;;;;;;;;;;0.60;99.90;;;;;;5163978;22;19992;-89
2021/01/09 15:36:56;;;;;;;;;;;0.50;99.90;;;;;;5170699;22;19932;-77
2021/01/09 15:39:23;;;;;;;;;;;0.40;99.90;;;;;;5015975;28;19991;-80
2021/01/09 15:41:56;;;;;;;;;;;0.40;99.90;;;;;;5029728;28;20318;-80
2021/01/09 15:52:36;;;;;;;;;;;0.30;99.90;;;;;;1863033;22;20199;-77
2021/01/09 15:55:03;;;;;;;;;;;0.20;99.90;;;;;;5149204;22;20870;-78
2021/01/09 15:57:29;;;;;;;;;;;0.20;99.90;;;;;;5484954;22;19929;-90
2021/01/09 16:02:30;;;;;;;;;;;0.10;99.90;;;;;;5674792;22;19936;-89
2021/01/09 16:10:06;;;;;;;;;;;0.10;99.90;;;;;;5334953;22;20395;-79
2021/01/09 16:12:34;;;;;;;;;;;0.10;99.90;;;;;;5325238;22;19934;-87
2021/01/09 16:15:00;;;;;;;;;;;0.10;99.90;;;;;;5364885;22;19925;-88
2021/01/09 16:19:55;;;;;;;;;;;0.10;99.90;;;;;;5036616;28;19991;-89
2021/01/09 16:22:21;;;;;;;;;;;0.10;99.90;;;;;;5021633;28;19917;-87
2021/01/09 16:27:17;;;;;;;;;;;0.20;99.90;;;;;;5031318;28;19971;-88
2021/01/09 16:29:42;;;;;;;;;;;0.20;99.90;;;;;;5046197;28;20319;-88
2021/01/09 16:32:09;;;;;;;;;;;0.20;99.90;;;;;;5222143;23;19931;-89
2021/01/09 16:37:10;;;;;;;;;;;0.20;99.90;;;;;;5094941;22;19983;-85
2021/01/09 16:39:38;;;;;;;;;;;0.10;99.90;;;;;;5010488;28;19945;-85
2021/01/09 16:42:04;;;;;;;;;;;0.10;99.90;;;;;;5014192;28;19917;-85
2021/01/09 16:44:34;;;;;;;;;;;0.00;99.90;;;;;;5032282;28;19920;-85
2021/01/09 16:47:00;;;;;;;;;;;0.00;99.90;;;;;;5119087;23;19937;-89
2021/01/09 16:49:27;;;;;;;;;;;0.00;99.90;;;;;;5025266;28;20335;-88
2021/01/09 16:51:55;;;;;;;;;;;-0.10;99.90;;;;;;5028447;28;19994;-89
2021/01/09 16:54:23;;;;;;;;;;;-0.10;99.90;;;;;;5028121;28;19913;-89
2021/01/09 16:56:49;;;;;;;;;;;-0.10;99.90;;;;;;5022658;28;19924;-87
2021/01/09 16:59:14;;;;;;;;;;;-0.10;99.90;;;;;;5024438;28;19913;-90
2021/01/09 17:01:40;;;;;;;;;;;-0.10;99.90;;;;;;5027004;28;19920;-90
2021/01/09 17:04:05;;;;;;;;;;;-0.20;99.90;;;;;;5022120;28;19996;-88
2021/01/09 17:06:51;;;;;;;;;;;-0.10;99.90;;;;;;5037180;28;20356;-90
2021/01/09 17:09:17;;;;;;;;;;;-0.10;99.90;;;;;;5025749;28;19920;-89
2021/01/09 17:14:22;;;;;;;;;;;-0.20;99.90;;;;;;5085176;22;19929;-84
2021/01/09 17:16:50;;;;;;;;;;;-0.20;99.90;;;;;;5031277;28;20024;-85
2021/01/09 17:19:16;;;;;;;;;;;-0.20;99.90;;;;;;5013764;28;19913;-84
2021/01/09 17:21:46;;;;;;;;;;;-0.30;99.90;;;;;;5013996;28;19924;-84
2021/01/09 17:24:15;;;;;;;;;;;-0.30;99.90;;;;;;5013898;28;19913;-84
2021/01/09 17:26:45;;;;;;;;;;;-0.30;99.90;;;;;;5013319;28;19923;-84
2021/01/09 17:34:32;;;;;;;;;;;-0.40;99.90;;;;;;5102967;22;19977;-90
2021/01/09 17:37:01;;;;;;;;;;;-0.50;99.90;;;;;;5053049;28;19923;-88
2021/01/09 17:39:27;;;;;;;;;;;-0.50;99.90;;;;;;5053059;28;19924;-91
2021/01/09 17:44:26;;;;;;;;;;;-0.60;99.90;;;;;;5038947;28;20464;-85
2021/01/09 17:46:51;;;;;;;;;;;-0.60;99.90;;;;;;5032252;28;19917;-84
2021/01/09 17:49:17;;;;;;;;;;;-0.60;99.90;;;;;;5029900;28;20267;-84
2021/01/09 17:51:45;;;;;;;;;;;-0.60;99.90;;;;;;5157798;22;20306;-90
2021/01/09 17:54:12;;;;;;;;;;;-0.60;99.90;;;;;;5163140;22;20739;-81
2021/01/09 17:56:38;;;;;;;;;;;-0.60;99.90;;;;;;5300550;22;19953;-84
2021/01/09 17:59:03;;;;;;;;;;;-0.70;99.90;;;;;;5029731;28;19975;-84
2021/01/09 18:01:34;;;;;;;;;;;-0.70;99.90;;;;;;5029868;28;19917;-84
2021/01/09 18:04:02;;;;;;;;;;;-0.70;99.90;;;;;;5030186;28;19956;-84
2021/01/09 18:06:31;;;;;;;;;;;-0.70;99.90;;;;;;5029309;28;19913;-84
2021/01/09 18:11:47;;;;;;;;;;;-0.80;99.90;;;;;;5052725;28;19929;-85
2021/01/09 18:14:18;;;;;;;;;;;-0.80;99.90;;;;;;5019217;28;19916;-86
2021/01/09 18:16:46;;;;;;;;;;;-0.80;99.90;;;;;;5032599;28;19979;-85
2021/01/09 18:19:12;;;;;;;;;;;-0.80;99.90;;;;;;5032992;28;20283;-85
2021/01/09 18:21:39;;;;;;;;;;;-0.80;99.90;;;;;;5039735;28;20065;-86
2021/01/09 18:24:05;;;;;;;;;;;-0.90;99.90;;;;;;5030000;28;19913;-85
2021/01/09 18:26:34;;;;;;;;;;;-0.90;99.90;;;;;;5050509;28;19947;-85
2021/01/09 18:29:03;;;;;;;;;;;-0.90;99.90;;;;;;5033260;28;19971;-85
2021/01/09 18:31:32;;;;;;;;;;;-0.90;99.90;;;;;;5032173;28;20276;-85
2021/01/09 18:33:58;;;;;;;;;;;-0.90;99.90;;;;;;5033186;28;20011;-85
2021/01/09 18:36:28;;;;;;;;;;;-1.00;99.90;;;;;;5032561;28;19999;-85
2021/01/09 18:39:00;;;;;;;;;;;-1.00;99.90;;;;;;5032761;28;19948;-86
2021/01/09 18:41:25;;;;;;;;;;;-1.00;99.90;;;;;;5032880;28;20410;-90
